Time;durP1;ratioP1;P1;durP2;ratioP2;P2;SDS_P1;SDS_P2;PMS_P1;PMS_P2;Temp;Humidity;BMP_temperature;BMP_pressure;BME280_temperature;BME280_humidity;BME280_pressure;Samples;Min_cycle;Max_cycle;Signal;HPM_P1;HPM_P2
2024/03/06 00:01:38;;;;;;;11.20;10.17;;;;;;;6.15;100.00;102024.56;7770896;22;20531;-69
2024/03/06 00:04:58;;;;;;;12.37;9.33;;;;;;;6.23;100.00;102030.41;7752178;22;20437;-68
2024/03/06 00:08:19;;;;;;;12.80;9.80;;;;;;;6.26;100.00;102042.75;7770572;22;20253;-68
2024/03/06 00:11:41;;;;;;;10.07;9.03;;;;;;;6.15;100.00;102040.63;7766882;22;20214;-68
2024/03/06 00:15:02;;;;;;;12.60;8.67;;;;;;;6.06;100.00;102049.16;7774189;22;20211;-68
2024/03/06 00:18:24;;;;;;;11.13;7.23;;;;;;;6.14;100.00;102052.31;7771532;22;20243;-69
2024/03/06 00:21:45;;;;;;;10.47;8.17;;;;;;;6.19;100.00;102052.06;7768862;22;20214;-67
2024/03/06 00:25:08;;;;;;;9.27;7.10;;;;;;;6.23;100.00;102050.97;7769874;22;20210;-68
2024/03/06 00:28:29;;;;;;;10.37;8.83;;;;;;;6.33;100.00;102049.53;7774449;22;20580;-68
2024/03/06 00:31:50;;;;;;;7.93;7.20;;;;;;;6.13;100.00;102061.25;7770100;22;20278;-69
2024/03/06 00:35:12;;;;;;;10.13;7.43;;;;;;;6.19;100.00;102058.28;7756781;22;20210;-67
2024/03/06 00:38:32;;;;;;;8.63;6.67;;;;;;;6.34;100.00;102056.63;7752823;22;20211;-68
2024/03/06 00:41:54;;;;;;;8.57;7.03;;;;;;;6.40;100.00;102054.47;7768501;22;20206;-68
2024/03/06 00:45:15;;;;;;;8.23;7.43;;;;;;;6.36;100.00;102057.41;7769725;22;20206;-68
2024/03/06 00:48:36;;;;;;;9.23;7.47;;;;;;;6.29;100.00;102075.63;7770603;22;20219;-68
2024/03/06 00:51:58;;;;;;;9.83;7.10;;;;;;;6.24;100.00;102069.63;7767768;22;20210;-68
2024/03/06 00:55:19;;;;;;;8.43;6.40;;;;;;;6.14;100.00;102073.72;7769814;22;20218;-68
2024/03/06 00:58:40;;;;;;;6.07;5.57;;;;;;;5.96;100.00;102082.69;7774657;22;20214;-68
2024/03/06 01:02:01;;;;;;;7.83;5.73;;;;;;;6.06;100.00;102086.63;7762744;22;20245;-68
2024/03/06 01:05:22;;;;;;;7.97;6.87;;;;;;;6.16;100.00;102082.53;7765836;22;20218;-69
2024/03/06 01:08:44;;;;;;;11.17;7.17;;;;;;;6.18;100.00;102088.69;7775471;22;20218;-68
2024/03/06 01:12:05;;;;;;;6.77;6.13;;;;;;;6.29;100.00;102097.03;7762013;22;20563;-69
2024/03/06 01:15:26;;;;;;;5.93;5.33;;;;;;;6.33;100.00;102090.56;7739376;22;20210;-68
2024/03/06 01:18:47;;;;;;;7.03;6.40;;;;;;;6.32;100.00;102099.53;7748073;22;20252;-68
2024/03/06 01:22:08;;;;;;;6.77;5.70;;;;;;;6.19;100.00;102095.78;7764187;22;20210;-68
2024/03/06 01:25:31;;;;;;;6.43;5.80;;;;;;;6.22;100.00;102095.59;7770845;22;20206;-68
2024/03/06 01:28:52;;;;;;;6.57;5.53;;;;;;;6.10;100.00;102098.03;7773512;22;20388;-68
2024/03/06 01:32:13;;;;;;;7.13;6.53;;;;;;;6.14;100.00;102102.28;7766160;22;20211;-68
2024/03/06 01:35:34;;;;;;;6.67;6.07;;;;;;;5.98;100.00;102099.53;7766640;22;20611;-67
2024/03/06 01:38:55;;;;;;;6.47;5.70;;;;;;;6.11;100.00;102095.28;7752087;22;20210;-68
2024/03/06 01:42:19;;;;;;;7.50;5.90;;;;;;;6.16;100.00;102105.75;7766172;22;20206;-67
2024/03/06 01:45:39;;;;;;;7.83;6.93;;;;;;;6.13;100.00;102114.81;7765074;22;20214;-68
2024/03/06 01:49:00;;;;;;;6.40;4.93;;;;;;;6.15;100.00;102114.75;7733652;22;20207;-68
2024/03/06 01:52:23;;;;;;;9.70;5.97;;;;;;;6.15;100.00;102110.22;7768608;22;20247;-67
2024/03/06 01:55:44;;;;;;;7.00;6.30;;;;;;;6.13;100.00;102111.28;7767519;22;20225;-68
2024/03/06 01:59:06;;;;;;;8.87;7.53;;;;;;;6.16;100.00;102121.81;7774828;22;20210;-68
2024/03/06 02:02:27;;;;;;;6.27;5.67;;;;;;;6.15;100.00;102123.63;7769496;22;20285;-68
2024/03/06 02:05:49;;;;;;;6.13;5.53;;;;;;;6.01;100.00;102126.13;7766361;22;20222;-68
2024/03/06 02:09:10;;;;;;;6.23;5.60;;;;;;;5.95;100.00;102125.56;7773310;22;20701;-68
2024/03/06 02:12:31;;;;;;;9.93;6.40;;;;;;;6.06;100.00;102124.09;7766136;22;20211;-68
2024/03/06 02:15:53;;;;;;;7.10;5.60;;;;;;;6.12;100.00;102121.13;7769207;22;20206;-67
2024/03/06 02:19:14;;;;;;;6.13;5.53;;;;;;;6.09;100.00;102117.75;7772231;22;20249;-67
2024/03/06 02:22:36;;;;;;;7.77;7.00;;;;;;;6.13;100.00;102127.34;7767230;22;20577;-68
2024/03/06 02:25:57;;;;;;;6.23;4.83;;;;;;;6.15;100.00;102118.25;7765216;22;20211;-67
2024/03/06 02:29:18;;;;;;;6.93;6.23;;;;;;;6.15;100.00;102123.63;7772191;22;20214;-67
2024/03/06 02:32:39;;;;;;;12.73;6.00;;;;;;;6.17;100.00;102126.25;7760844;22;20206;-67
2024/03/06 02:36:00;;;;;;;8.83;5.60;;;;;;;6.06;100.00;102133.94;7765793;22;20214;-68
2024/03/06 02:39:24;;;;;;;6.47;5.53;;;;;;;5.95;100.00;102137.16;7759315;22;20203;-68
2024/03/06 02:42:45;;;;;;;9.43;5.20;;;;;;;6.05;100.00;102137.56;7763366;22;20240;-68
2024/03/06 02:46:06;;;;;;;7.60;6.40;;;;;;;6.11;100.00;102139.94;7764125;22;20206;-67
2024/03/06 02:49:27;;;;;;;7.07;6.40;;;;;;;6.17;100.00;102135.16;7769914;22;20222;-68
2024/03/06 02:52:48;;;;;;;7.00;6.30;;;;;;;6.09;100.00;102125.75;7763474;22;20568;-67
2024/03/06 02:56:16;;;;;;;7.30;5.80;;;;;;;5.69;100.00;102141.03;7744774;22;20206;-67
2024/03/06 02:59:40;;;;;;;5.83;5.23;;;;;;;5.53;100.00;102134.72;7773319;22;20281;-68
2024/03/06 03:03:01;;;;;;;7.03;6.00;;;;;;;5.52;100.00;102134.78;7763139;22;20210;-68
2024/03/06 03:06:23;;;;;;;6.13;5.50;;;;;;;5.51;100.00;102133.03;7761369;22;20221;-68
2024/03/06 03:09:44;;;;;;;6.03;5.07;;;;;;;5.61;100.00;102137.03;7773317;22;20218;-68
2024/03/06 03:13:06;;;;;;;7.40;6.10;;;;;;;5.67;100.00;102142.09;7767461;22;20202;-67
2024/03/06 03:16:27;;;;;;;9.17;6.83;;;;;;;5.63;100.00;102135.16;7767455;22;20285;-68
2024/03/06 03:19:48;;;;;;;5.73;5.23;;;;;;;5.51;100.00;102133.91;7772274;22;20289;-69
2024/03/06 03:23:11;;;;;;;6.70;4.30;;;;;;;5.38;100.00;102137.25;7772336;22;20205;-67
2024/03/06 03:26:32;;;;;;;4.83;4.43;;;;;;;5.37;100.00;102140.84;7767393;22;20697;-68
2024/03/06 03:29:54;;;;;;;4.97;4.53;;;;;;;5.34;100.00;102146.38;7774750;22;20218;-68
2024/03/06 03:33:16;;;;;;;9.73;6.57;;;;;;;5.31;100.00;102146.50;7769207;22;20221;-68
2024/03/06 03:36:41;;;;;;;5.07;4.50;;;;;;;5.24;100.00;102153.06;7768095;22;20218;-68
2024/03/06 03:40:02;;;;;;;4.77;4.27;;;;;;;5.16;100.00;102156.09;7773468;22;20202;-68
2024/03/06 03:43:24;;;;;;;6.20;5.13;;;;;;;5.11;100.00;102152.75;7771536;22;20494;-68
2024/03/06 03:46:47;;;;;;;7.37;6.27;;;;;;;5.00;100.00;102157.75;7766700;22;20814;-68
2024/03/06 03:50:09;;;;;;;6.27;5.67;;;;;;;5.02;100.00;102165.69;7769097;22;20439;-68
2024/03/06 03:53:29;;;;;;;5.77;5.20;;;;;;;5.05;100.00;102165.56;7774106;22;20207;-67
2024/03/06 03:56:50;;;;;;;5.47;4.97;;;;;;;5.01;100.00;102162.13;7771338;22;20214;-68
2024/03/06 04:00:12;;;;;;;5.80;4.70;;;;;;;5.04;100.00;102166.47;7774841;22;20450;-67
2024/03/06 04:03:35;;;;;;;5.80;5.00;;;;;;;4.94;100.00;102174.03;7768530;22;20446;-68
2024/03/06 04:06:55;;;;;;;7.77;5.53;;;;;;;4.89;100.00;102173.38;7769264;22;20214;-68
2024/03/06 04:10:16;;;;;;;5.23;4.83;;;;;;;4.81;100.00;102176.41;7768893;22;20462;-67
2024/03/06 04:13:38;;;;;;;5.73;5.23;;;;;;;4.86;100.00;102174.38;7773612;22;20588;-68
2024/03/06 04:16:58;;;;;;;6.40;5.47;;;;;;;4.81;100.00;102178.19;7768116;22;20207;-67
2024/03/06 04:20:20;;;;;;;5.50;5.00;;;;;;;4.77;100.00;102177.47;7769997;22;20214;-68
2024/03/06 04:23:41;;;;;;;6.23;5.63;;;;;;;4.70;100.00;102178.66;7772346;22;20292;-69
2024/03/06 04:27:02;;;;;;;4.50;4.03;;;;;;;4.68;100.00;102180.53;7766938;22;20214;-67
2024/03/06 04:30:23;;;;;;;8.50;4.63;;;;;;;4.76;100.00;102180.19;7763883;22;20616;-67
2024/03/06 04:33:43;;;;;;;5.33;4.83;;;;;;;4.68;100.00;102191.22;7770788;22;20301;-69
2024/03/06 04:37:06;;;;;;;4.73;4.33;;;;;;;4.66;100.00;102195.75;7751604;22;20206;-66
2024/03/06 04:40:28;;;;;;;5.00;4.60;;;;;;;4.65;100.00;102187.81;7762977;22;20293;-68
2024/03/06 04:43:50;;;;;;;6.63;3.97;;;;;;;4.52;100.00;102189.25;7774172;22;20214;-68
2024/03/06 04:47:11;;;;;;;15.43;4.77;;;;;;;4.50;100.00;102188.47;7758663;22;20293;-68
2024/03/06 04:50:32;;;;;;;7.53;5.47;;;;;;;4.56;100.00;102193.53;7766852;22;20218;-68
2024/03/06 04:53:55;;;;;;;6.83;6.13;;;;;;;4.58;100.00;102192.53;7772018;22;20218;-68
2024/03/06 04:57:16;;;;;;;6.40;5.10;;;;;;;4.54;100.00;102190.94;7768531;22;20265;-67
2024/03/06 05:00:37;;;;;;;7.43;5.97;;;;;;;4.50;100.00;102200.03;7753936;22;20214;-67
2024/03/06 05:03:58;;;;;;;4.33;3.97;;;;;;;4.52;100.00;102199.94;7772620;22;20206;-67
2024/03/06 05:07:19;;;;;;;5.17;4.67;;;;;;;4.51;100.00;102200.88;7768799;22;20211;-68
2024/03/06 05:10:41;;;;;;;7.70;5.50;;;;;;;4.53;100.00;102212.34;7768833;22;20215;-67
2024/03/06 05:14:02;;;;;;;6.40;5.27;;;;;;;4.51;100.00;102211.53;7777568;22;20207;-67
2024/03/06 05:17:24;;;;;;;6.60;5.07;;;;;;;4.76;100.00;102210.44;7757420;22;20215;-68
2024/03/06 05:20:45;;;;;;;6.03;5.57;;;;;;;4.61;100.00;102219.09;7773014;22;20281;-68
2024/03/06 05:24:06;;;;;;;9.73;6.13;;;;;;;4.53;100.00;102215.91;7776586;22;20214;-69
2024/03/06 05:27:28;;;;;;;17.60;15.97;;;;;;;4.44;100.00;102223.44;7753895;22;20234;-69
2024/03/06 05:30:49;;;;;;;7.93;7.13;;;;;;;4.33;100.00;102234.56;7767655;22;20214;-68
2024/03/06 05:34:10;;;;;;;9.23;8.33;;;;;;;4.32;100.00;102245.31;7751281;22;20215;-68
2024/03/06 05:37:31;;;;;;;13.07;9.53;;;;;;;4.24;100.00;102250.94;7763324;22;20899;-67
2024/03/06 05:40:51;;;;;;;7.23;5.93;;;;;;;4.22;100.00;102255.47;7763915;22;20265;-68
2024/03/06 05:44:14;;;;;;;7.63;6.90;;;;;;;4.19;100.00;102265.41;7771765;22;20246;-68
2024/03/06 05:47:35;;;;;;;13.33;11.93;;;;;;;4.22;100.00;102273.28;7763633;22;20210;-68
2024/03/06 05:50:55;;;;;;;6.17;5.57;;;;;;;4.19;100.00;102278.75;7759213;22;20222;-68
2024/03/06 05:54:17;;;;;;;7.50;6.13;;;;;;;4.16;100.00;102285.06;7773637;22;20214;-68
2024/03/06 05:57:38;;;;;;;5.40;4.57;;;;;;;4.19;100.00;102292.09;7764727;22;20207;-70
2024/03/06 06:01:01;;;;;;;5.23;4.77;;;;;;;4.17;100.00;102293.94;7759183;22;20280;-68
2024/03/06 06:04:22;;;;;;;5.17;3.93;;;;;;;4.20;100.00;102305.38;7770425;22;20325;-67
2024/03/06 06:07:43;;;;;;;9.07;4.83;;;;;;;4.17;100.00;102299.28;7761061;22;20210;-67
2024/03/06 06:11:04;;;;;;;5.33;3.77;;;;;;;4.18;100.00;102301.88;7735636;22;20313;-67
2024/03/06 06:14:26;;;;;;;6.60;5.43;;;;;;;4.15;100.00;102315.38;7767820;22;20560;-68
2024/03/06 06:17:49;;;;;;;5.87;5.13;;;;;;;4.21;100.00;102311.56;7755318;22;20234;-68
2024/03/06 06:21:10;;;;;;;6.53;5.37;;;;;;;4.27;100.00;102319.34;7761484;22;20210;-70
2024/03/06 06:24:56;;;;;;;7.33;5.27;;;;;;;4.27;100.00;102322.88;7767185;22;20206;-68
2024/03/06 06:28:17;;;;;;;5.43;4.90;;;;;;;4.35;100.00;102335.91;7751803;22;20228;-66
2024/03/06 06:31:38;;;;;;;6.97;5.50;;;;;;;4.35;100.00;102339.47;7759844;22;20382;-67
2024/03/06 06:35:00;;;;;;;4.70;4.40;;;;;;;4.37;100.00;102342.06;7770112;22;20546;-66
2024/03/06 06:38:21;;;;;;;6.57;5.93;;;;;;;4.36;100.00;102348.34;7770571;22;20317;-67
2024/03/06 06:41:43;;;;;;;5.97;4.70;;;;;;;4.42;100.00;102351.63;7765676;22;20604;-69
2024/03/06 06:45:07;;;;;;;7.03;4.97;;;;;;;4.57;100.00;102356.34;7766037;22;20230;-68
2024/03/06 06:48:28;;;;;;;5.40;5.00;;;;;;;4.58;100.00;102360.78;7750438;22;20289;-68
2024/03/06 06:51:50;;;;;;;9.73;5.40;;;;;;;4.56;100.00;102362.63;7760102;22;20214;-67
2024/03/06 06:55:11;;;;;;;5.13;4.73;;;;;;;4.63;100.00;102366.78;7764280;22;20218;-67
2024/03/06 06:58:32;;;;;;;7.40;5.20;;;;;;;4.75;100.00;102374.31;7765034;22;20293;-68
2024/03/06 07:01:54;;;;;;;12.63;7.17;;;;;;;4.86;100.00;102373.84;7752946;22;20559;-66
2024/03/06 07:05:14;;;;;;;10.83;5.43;;;;;;;4.89;100.00;102387.09;7758098;22;20428;-66
2024/03/06 07:08:37;;;;;;;5.33;4.73;;;;;;;4.84;100.00;102381.06;7765624;22;20298;-66
2024/03/06 07:11:57;;;;;;;6.40;5.80;;;;;;;4.95;100.00;102384.16;7767765;22;20593;-66
2024/03/06 07:15:19;;;;;;;6.20;5.63;;;;;;;5.12;100.00;102380.78;7771516;22;20206;-65
2024/03/06 07:18:40;;;;;;;8.13;6.20;;;;;;;5.02;100.00;102379.44;7768461;22;20259;-65
2024/03/06 07:22:01;;;;;;;7.03;5.83;;;;;;;5.11;100.00;102381.75;7756757;22;20215;-67
2024/03/06 07:25:22;;;;;;;6.20;5.70;;;;;;;5.14;100.00;102379.81;7767978;22;20493;-67
2024/03/06 07:28:43;;;;;;;6.30;5.67;;;;;;;5.23;100.00;102386.56;7772871;22;20206;-68
2024/03/06 07:32:05;;;;;;;5.70;5.00;;;;;;;5.43;100.00;102391.91;7771614;22;20304;-67
2024/03/06 07:35:26;;;;;;;5.27;4.83;;;;;;;5.46;100.00;102400.69;7768887;22;20347;-67
2024/03/06 07:38:47;;;;;;;5.23;4.73;;;;;;;5.54;100.00;102403.91;7775036;22;20259;-67
2024/03/06 07:42:10;;;;;;;5.00;4.57;;;;;;;5.73;100.00;102397.75;7744874;22;20265;-68
2024/03/06 07:45:31;;;;;;;5.87;5.23;;;;;;;5.90;100.00;102397.91;7772158;22;20556;-67
2024/03/06 07:48:52;;;;;;;5.23;4.77;;;;;;;5.90;100.00;102397.91;7773770;22;20991;-67
2024/03/06 07:52:13;;;;;;;5.13;4.63;;;;;;;6.02;100.00;102400.88;7754421;22;20222;-65
2024/03/06 07:55:34;;;;;;;4.97;4.47;;;;;;;6.14;100.00;102402.13;7770197;22;20596;-68
2024/03/06 07:58:57;;;;;;;7.60;5.37;;;;;;;6.07;100.00;102414.06;7773175;22;20297;-69
2024/03/06 08:02:18;;;;;;;7.30;4.37;;;;;;;6.19;100.00;102410.81;7766293;22;20214;-66
2024/03/06 08:05:39;;;;;;;6.87;5.63;;;;;;;6.41;100.00;102412.44;7772011;22;20210;-68
2024/03/06 08:09:01;;;;;;;4.60;4.20;;;;;;;6.53;100.00;102424.34;7778500;22;20544;-67
2024/03/06 08:12:23;;;;;;;5.83;5.37;;;;;;;6.41;100.00;102417.78;7775211;22;20218;-68
2024/03/06 08:15:45;;;;;;;4.70;4.30;;;;;;;6.46;100.00;102420.25;7772635;22;20202;-66
2024/03/06 08:19:06;;;;;;;5.33;4.83;;;;;;;6.57;100.00;102422.44;7780273;22;20225;-66
2024/03/06 08:22:27;;;;;;;5.50;5.00;;;;;;;6.59;100.00;102425.91;7777943;22;20252;-65
2024/03/06 08:25:47;;;;;;;3.90;3.60;;;;;;;6.65;100.00;102437.19;7768501;22;20226;-67
2024/03/06 08:29:08;;;;;;;5.57;5.07;;;;;;;6.78;100.00;102435.66;7764691;22;20210;-67
2024/03/06 08:32:31;;;;;;;5.57;5.10;;;;;;;6.88;100.00;102441.44;7776652;22;20218;-66
2024/03/06 08:35:52;;;;;;;5.63;5.10;;;;;;;7.17;100.00;102440.91;7773571;22;20218;-68
2024/03/06 08:39:16;;;;;;;7.87;5.40;;;;;;;7.00;100.00;102446.22;7743533;23;20210;-67
2024/03/06 08:42:37;;;;;;;6.03;5.13;;;;;;;7.03;100.00;102449.59;7733704;23;20218;-70
2024/03/06 08:45:58;;;;;;;5.57;4.13;;;;;;;7.10;100.00;102452.84;7730082;23;20427;-69
2024/03/06 08:49:20;;;;;;;6.07;4.47;;;;;;;7.10;100.00;102455.53;7738959;23;20207;-68
2024/03/06 08:52:42;;;;;;;5.33;4.83;;;;;;;7.42;100.00;102454.81;7737084;23;20252;-69
2024/03/06 08:56:03;;;;;;;5.27;4.87;;;;;;;7.88;100.00;102443.47;7742344;23;20211;-69
2024/03/06 08:59:23;;;;;;;5.00;4.57;;;;;;;7.44;100.00;102460.09;7743679;23;20223;-69
2024/03/06 09:02:44;;;;;;;4.93;4.53;;;;;;;7.52;100.00;102466.81;7733728;23;20206;-69
2024/03/06 09:06:07;;;;;;;6.57;4.83;;;;;;;7.44;100.00;102457.41;7738505;22;20211;-69
2024/03/06 09:09:29;;;;;;;4.83;4.43;;;;;;;7.84;100.00;102463.34;7740700;23;20215;-69
2024/03/06 09:12:50;;;;;;;5.83;4.60;;;;;;;8.18;100.00;102472.31;7739399;23;20215;-69
2024/03/06 09:16:11;;;;;;;6.90;5.43;;;;;;;8.51;100.00;102471.38;7734010;23;20605;-68
2024/03/06 09:19:33;;;;;;;7.33;5.60;;;;;;;8.63;100.00;102477.91;7745321;23;20577;-68
2024/03/06 09:22:56;;;;;;;5.53;5.03;;;;;;;8.88;100.00;102470.22;7739769;23;20215;-69
2024/03/06 09:26:17;;;;;;;5.87;5.30;;;;;;;8.97;100.00;102472.38;7720723;23;20211;-70
2024/03/06 09:29:38;;;;;;;7.00;5.57;;;;;;;8.92;100.00;102479.84;7743069;23;20211;-69
2024/03/06 09:32:58;;;;;;;4.73;4.33;;;;;;;9.01;100.00;102479.31;7734316;23;20211;-70
2024/03/06 09:36:20;;;;;;;5.67;5.03;;;;;;;9.45;100.00;102484.88;7740116;22;20211;-69
2024/03/06 09:39:42;;;;;;;5.17;4.00;;;;;;;9.35;100.00;102483.63;7765226;22;20285;-70
2024/03/06 09:43:03;;;;;;;4.70;4.30;;;;;;;9.17;100.00;102476.63;7774924;22;20211;-70
2024/03/06 09:46:24;;;;;;;5.23;4.33;;;;;;;9.17;100.00;102485.59;7774507;22;20333;-71
2024/03/06 09:49:45;;;;;;;6.67;6.07;;;;;;;9.06;100.00;102488.00;7778979;22;20210;-70
2024/03/06 09:53:08;;;;;;;8.97;5.60;;;;;;;9.97;100.00;102480.78;7776790;22;20261;-70
2024/03/06 09:56:32;;;;;;;5.40;4.90;;;;;;;11.01;100.00;102479.56;7773467;22;20211;-69
2024/03/06 09:59:53;;;;;;;7.43;6.67;;;;;;;10.09;100.00;102492.66;7782028;22;20214;-69
2024/03/06 10:03:14;;;;;;;8.23;7.43;;;;;;;9.13;100.00;102500.16;7773965;22;20592;-70
2024/03/06 10:06:35;;;;;;;6.10;5.60;;;;;;;9.72;100.00;102491.28;7771734;22;20218;-70
2024/03/06 10:09:56;;;;;;;7.70;6.03;;;;;;;10.39;100.00;102498.88;7779005;22;20246;-69
2024/03/06 10:13:19;;;;;;;7.17;6.27;;;;;;;10.43;100.00;102495.03;7779444;22;20218;-68
2024/03/06 10:16:53;;;;;;;8.07;6.67;;;;;;;11.02;100.00;102500.19;7767411;22;20210;-67
2024/03/06 10:20:19;;;;;;;8.93;8.00;;;;;;;10.83;100.00;102506.88;7774190;22;20213;-68
2024/03/06 10:23:40;;;;;;;9.63;8.67;;;;;;;13.60;93.93;102502.69;7778725;22;20215;-66
2024/03/06 10:27:01;;;;;;;8.03;6.63;;;;;;;18.50;74.31;102496.38;7723863;22;20216;-66
2024/03/06 10:30:24;;;;;;;5.70;4.80;;;;;;;21.26;51.54;102500.59;7773281;22;20544;-66
2024/03/06 10:33:45;;;;;;;8.27;6.05;;;;;;;22.43;42.81;102500.25;7773805;22;20214;-68
2024/03/06 10:37:06;;;;;;;7.85;5.60;;;;;;;23.85;38.03;102494.53;7774377;22;20214;-67
2024/03/06 10:40:29;;;;;;;6.32;5.72;;;;;;;23.38;35.83;102496.56;7773195;22;20286;-67
2024/03/06 10:43:54;;;;;;;6.18;5.57;;;;;;;24.28;34.82;102493.03;7775604;22;20214;-68
2024/03/06 10:47:16;;;;;;;5.50;5.00;;;;;;;24.77;33.86;102499.78;7772940;22;21074;-65
2024/03/06 10:50:40;;;;;;;7.72;6.00;;;;;;;24.96;32.84;102495.59;7772620;22;20210;-67
2024/03/06 10:54:01;;;;;;;4.75;4.25;;;;;;;25.99;31.71;102491.56;7776283;22;20210;-68
2024/03/06 10:57:22;;;;;;;5.78;5.28;;;;;;;25.40;31.79;102490.88;7761163;22;20214;-68
2024/03/06 11:00:47;;;;;;;6.40;5.80;;;;;;;25.43;31.41;102493.28;7754188;22;20214;-69
2024/03/06 11:04:11;;;;;;;4.82;4.35;;;;;;;25.97;30.73;102502.81;7777718;22;20207;-70
2024/03/06 11:07:32;;;;;;;6.45;5.72;;;;;;;26.73;29.53;102488.19;7773336;22;20686;-69
2024/03/06 11:10:53;;;;;;;6.43;5.68;;;;;;;27.47;28.52;102491.16;7773235;22;20256;-68
2024/03/06 11:14:14;;;;;;;7.20;6.53;;;;;;;26.84;28.21;102489.53;7781085;22;20214;-69
2024/03/06 11:17:35;;;;;;;11.15;10.15;;;;;;;26.68;28.37;102490.66;7769592;22;20214;-70
2024/03/06 11:21:30;;;;;;;5.32;4.82;;;;;;;26.50;28.16;102495.88;7745433;22;20214;-68
2024/03/06 11:24:51;;;;;;;6.15;5.57;;;;;;;26.44;27.87;102499.44;7778659;22;20256;-67
2024/03/06 11:28:17;;;;;;;5.93;5.43;;;;;;;26.58;28.73;102501.25;7770777;22;20210;-69
2024/03/06 11:31:38;;;;;;;6.30;5.70;;;;;;;23.44;31.52;102504.13;7767578;22;20448;-65
2024/03/06 11:35:00;;;;;;;6.30;5.63;;;;;;;25.52;30.59;102505.06;7777660;22;20536;-66
2024/03/06 11:38:22;;;;;;;5.38;4.93;;;;;;;24.40;30.56;102503.41;7775431;22;20211;-66
2024/03/06 11:41:48;;;;;;;6.45;5.68;;;;;;;24.10;31.99;102504.38;7771030;22;20289;-67
2024/03/06 11:45:22;;;;;;;6.40;5.75;;;;;;;23.03;33.18;102492.38;7777435;22;20214;-68
2024/03/06 11:48:42;;;;;;;5.70;5.10;;;;;;;23.95;32.44;102499.81;7778085;22;20210;-69
2024/03/06 11:52:05;;;;;;;5.47;5.03;;;;;;;20.79;34.13;102513.03;7774356;22;20210;-68
2024/03/06 11:55:28;;;;;;;6.93;5.82;;;;;;;18.03;40.29;102509.06;7771111;22;22760;-69
2024/03/06 11:58:49;;;;;;;6.38;5.78;;;;;;;15.94;46.75;102513.50;7780730;22;20293;-69
2024/03/06 12:02:11;;;;;;;6.70;6.03;;;;;;;14.52;54.35;102524.44;7759431;22;20248;-66
2024/03/06 12:05:32;;;;;;;6.95;6.25;;;;;;;14.03;58.30;102527.38;7770605;22;20210;-66
2024/03/06 12:08:54;;;;;;;6.72;5.93;;;;;;;14.44;60.70;102525.03;7772731;22;20204;-67
2024/03/06 12:12:16;;;;;;;7.57;6.72;;;;;;;14.14;60.41;102519.28;7763317;22;20214;-68
2024/03/06 12:15:37;;;;;;;7.13;5.63;;;;;;;14.26;62.50;102532.75;7769192;22;20260;-67
2024/03/06 12:18:59;;;;;;;9.00;5.93;;;;;;;16.29;53.94;102519.47;7776572;22;20214;-67
2024/03/06 12:22:26;;;;;;;8.57;5.67;;;;;;;15.00;56.58;102517.78;7774444;22;20248;-66
2024/03/06 12:25:47;;;;;;;6.90;5.67;;;;;;;14.36;61.00;102530.19;7775222;22;20305;-70
2024/03/06 12:29:10;;;;;;;5.87;5.30;;;;;;;14.21;62.79;102529.50;7780323;22;20210;-70
2024/03/06 12:32:31;;;;;;;6.33;5.73;;;;;;;13.88;64.91;102531.25;7766800;22;20217;-69
2024/03/06 12:36:02;;;;;;;7.47;5.50;;;;;;;14.23;65.27;102526.69;7772455;22;20565;-69
2024/03/06 12:39:24;;;;;;;6.30;4.97;;;;;;;14.55;62.33;102526.91;7779303;22;20206;-68
2024/03/06 12:42:45;;;;;;;7.47;6.37;;;;;;;14.06;63.64;102530.69;7769289;22;20210;-69
2024/03/06 12:46:08;;;;;;;5.70;5.20;;;;;;;18.48;55.61;102522.97;7762652;22;20211;-69
2024/03/06 12:49:29;;;;;;;5.40;4.90;;;;;;;22.32;39.26;102519.00;7778203;22;20459;-68
2024/03/06 12:52:52;;;;;;;5.50;4.97;;;;;;;20.06;38.74;102509.75;7772969;22;20218;-68
2024/03/06 12:56:12;;;;;;;6.72;5.45;;;;;;;16.56;47.96;102517.09;7773742;22;20206;-67
2024/03/06 12:59:34;;;;;;;7.85;5.57;;;;;;;16.53;51.31;102527.41;7781500;22;20214;-68
2024/03/06 13:02:56;;;;;;;6.63;5.68;;;;;;;15.72;53.28;102528.06;7760130;22;20526;-68
2024/03/06 13:06:17;;;;;;;7.20;6.50;;;;;;;15.15;56.23;102525.56;7767281;22;20313;-68
2024/03/06 13:09:38;;;;;;;7.80;6.30;;;;;;;15.16;56.94;102529.16;7780748;22;20206;-68
2024/03/06 13:12:58;;;;;;;5.90;5.33;;;;;;;14.62;58.36;102531.75;7775209;22;20222;-68
2024/03/06 13:16:19;;;;;;;6.90;5.93;;;;;;;14.65;59.49;102530.63;7773035;22;20421;-68
2024/03/06 13:19:43;;;;;;;8.73;6.43;;;;;;;13.90;61.69;102529.28;7778463;22;20549;-68
2024/03/06 13:23:04;;;;;;;6.97;6.10;;;;;;;13.71;64.12;102535.22;7774293;22;20339;-67
2024/03/06 13:26:25;;;;;;;5.90;5.30;;;;;;;13.64;65.68;102532.13;7769556;22;20215;-67
2024/03/06 13:29:46;;;;;;;6.00;5.40;;;;;;;13.89;65.50;102527.56;7781613;22;20230;-68
2024/03/06 13:33:07;;;;;;;10.10;6.53;;;;;;;13.53;65.95;102525.78;7774040;22;20214;-68
2024/03/06 13:36:29;;;;;;;8.27;5.10;;;;;;;13.32;67.19;102530.97;7774405;22;20565;-68
2024/03/06 13:39:50;;;;;;;6.07;5.50;;;;;;;13.22;68.18;102529.91;7781152;22;20218;-67
2024/03/06 13:43:11;;;;;;;6.60;5.80;;;;;;;13.09;68.88;102534.50;7779261;22;20214;-67
2024/03/06 13:46:33;;;;;;;11.30;8.80;;;;;;;12.99;68.85;102536.09;7771016;22;20209;-67
2024/03/06 13:49:55;;;;;;;12.53;11.30;;;;;;;13.52;66.61;102532.16;7780786;22;20218;-66
2024/03/06 13:53:17;;;;;;;7.53;5.57;;;;;;;13.09;68.78;102530.91;7748709;22;20405;-67
2024/03/06 13:56:38;;;;;;;6.97;6.20;;;;;;;13.15;68.85;102535.88;7775692;22;20390;-68
2024/03/06 13:59:59;;;;;;;6.77;5.17;;;;;;;12.98;68.96;102536.19;7780356;22;20222;-68
2024/03/06 14:03:21;;;;;;;5.93;5.40;;;;;;;14.41;67.63;102522.59;7776886;22;20210;-69
2024/03/06 14:06:42;;;;;;;7.93;6.33;;;;;;;18.62;49.74;102519.78;7775946;22;20210;-67
2024/03/06 14:10:07;;;;;;;6.03;5.53;;;;;;;20.22;41.66;102520.84;7781064;22;20290;-69
2024/03/06 14:13:28;;;;;;;7.03;5.57;;;;;;;18.89;43.02;102528.91;7781314;22;20210;-69
2024/03/06 14:16:49;;;;;;;5.73;5.23;;;;;;;20.57;39.28;102523.53;7773809;22;20222;-68
2024/03/06 14:20:12;;;;;;;5.77;5.17;;;;;;;20.40;38.18;102524.41;7731861;22;20215;-67
2024/03/06 14:23:33;;;;;;;7.63;6.83;;;;;;;20.66;38.56;102518.97;7778742;22;20330;-68
2024/03/06 14:26:55;;;;;;;8.87;6.67;;;;;;;20.96;37.85;102526.69;7775896;22;20215;-69
2024/03/06 14:30:18;;;;;;;8.40;6.97;;;;;;;21.12;36.79;102528.66;7765892;22;20683;-68
2024/03/06 14:33:41;;;;;;;7.38;5.00;;;;;;;21.34;37.49;102528.09;7772341;22;20330;-67
2024/03/06 14:37:02;;;;;;;7.00;6.37;;;;;;;19.86;38.89;102525.47;7774893;22;20560;-68
2024/03/06 14:40:23;;;;;;;6.20;5.60;;;;;;;20.94;38.00;102528.72;7775631;22;20214;-69
2024/03/06 14:43:46;;;;;;;6.27;5.63;;;;;;;21.13;37.76;102523.00;7772204;22;20223;-67
2024/03/06 14:47:07;;;;;;;6.10;5.50;;;;;;;20.51;38.30;102534.25;7750869;22;20206;-66
2024/03/06 14:50:28;;;;;;;5.93;5.20;;;;;;;18.56;39.58;102543.09;7774546;22;20557;-67
2024/03/06 14:53:49;;;;;;;5.57;4.40;;;;;;;16.51;45.45;102553.91;7775496;22;20225;-67
2024/03/06 14:57:11;;;;;;;6.07;5.17;;;;;;;17.99;44.93;102541.25;7755987;22;20571;-67
2024/03/06 15:00:33;;;;;;;5.20;4.70;;;;;;;18.28;43.12;102541.22;7775902;22;20206;-68
2024/03/06 15:03:55;;;;;;;4.90;4.27;;;;;;;16.70;45.90;102544.00;7776441;22;20206;-67
2024/03/06 15:07:16;;;;;;;6.07;5.40;;;;;;;17.31;45.37;102547.53;7773259;22;20244;-66
2024/03/06 15:10:37;;;;;;;5.10;4.60;;;;;;;15.37;48.49;102546.41;7776523;22;20242;-68
2024/03/06 15:13:58;;;;;;;8.57;7.27;;;;;;;13.56;56.51;102560.75;7776866;22;20218;-68
2024/03/06 15:17:20;;;;;;;7.77;7.07;;;;;;;12.61;62.95;102565.03;7770986;22;20205;-66
2024/03/06 15:20:41;;;;;;;6.67;5.37;;;;;;;13.20;65.24;102569.78;7731009;22;20856;-67
2024/03/06 15:24:02;;;;;;;5.77;4.47;;;;;;;14.10;59.99;102563.88;7778183;22;20233;-68
2024/03/06 15:27:23;;;;;;;6.03;5.43;;;;;;;13.06;61.98;102569.91;7775942;22;20210;-67
2024/03/06 15:30:44;;;;;;;6.90;5.33;;;;;;;12.07;66.21;102571.53;7750600;22;20206;-66
2024/03/06 15:34:07;;;;;;;4.67;4.27;;;;;;;12.02;69.39;102571.84;7779515;22;20293;-67
2024/03/06 15:37:28;;;;;;;5.67;5.17;;;;;;;12.07;68.82;102575.13;7776606;22;20536;-68